Terminal Aerodrome Forecast
Issued by NWS

Home | Current Version | Previous Version | Text Only | Print | Product List | Glossary On
Versions: 1 2 3 4 5 6 7 8 9 10 11 12 13 14 15 16 17 18 19 20 21 22 23 24 25 26 27 28 29 30 31 32 33 34 35 36 37 38 39 40 41 42 43 44 45 46 47 48 49 50
000
FTUS45 KBOU 101136
TAFBJC
TAF
KBJC 101136Z 1012/1112 35005KT P6SM FEW200
      TEMPO 1012/1015 4SM BR FEW005
     FM101600 28014KT P6SM FEW140 SCT220
     FM102200 29016G24KT P6SM SCT090 BKN160
     FM110300 28014G24KT P6SM SCT080 BKN140
     FM110700 32014KT P6SM BKN070 OVC120 PROB30 1108/1112 4SM -SN
      BKN050=

USA.gov is the U.S. government's official web portal to all federal, state and local government web resources and services.